Douglas, WY (82633)

5:51 AM MST on January 24, 2017 (GMT -0700)
Ridgewater Rd | | Change Station
Active Advisory: Winter Weather Advisory

Elev 4885 ft 42.74 °N, 105.43 °W | Updated 1 second ago

Mostly Cloudy
Mostly Cloudy
15.8 °F
Feels Like 5 °F
N
8.7
Wind Variable Wind from WNW
Gusts 9.8 mph

Today
High -- | Low -- °F
--% Chance of Precip.
Yesterday
High -- | Low -- °F
Precip. -- in
Pressure 29.73 in
Visibility 10.0 miles
Clouds Mostly Cloudy 2200 ft
Windchill 5 °F
Dew Point 13 °F
Humidity 88%
Rainfall 0.00 in
Snow Depth Not available.
7:23 AM 5:04 PM
Waning Crescent, 12% visible
METAR KDGW 241153Z AUTO 35007KT 10SM BKN022 M09/M11 A2962 RMK AO2 SNE37 SLP067 P0000 60000 T10941111 11039 21094 50005
Pressure 29.73 in
Visibility 10.0 miles
Clouds Mostly Cloudy 2200 ft
Windchill 5 °F
Dew Point 13 °F
Humidity 88%
Rainfall 0.00 in
Snow Depth Not available.
7:23 AM 5:04 PM
Waning Crescent, 12% visible
METAR KDGW 241153Z AUTO 35007KT 10SM BKN022 M09/M11 A2962 RMK AO2 SNE37 SLP067 P0000 60000 T10941111 11039 21094 50005

Get Your Daily Forecast Email!

Thanks for signing up!

Be on the lookout for a verification email in your inbox.

You'll start receiving the daily forecast at 8 AM.

×

10-Day Weather Forecast

Almanac

Astronomy

Jan. 24, 2017 Rise Set
Actual Time
Civil Twilight
Nautical Twilight
Astronomical Twilight
Moon
Length of Visible Light
Length of Day
Tomorrow will be .
, % of the Moon is Illuminated

Today's Extremes

State Highs State Lows

Community

WunderPhotos

Upload Photos

1,962,540 photos uploaded!

WunderBlog® & News

Nearby

Air Quality

  Air Quality AQ Index Pollutant
Not available.

Snow Depth

Station Depth Elevation

Earthquake Activity

City Distance Mag. Time & Date
Minimum magnitude displayed is 2.5.

Coastal Water Temperatures

Place Temperature

Stations

Nearby Weather Stations

Station Location Temp. Windchill Dew Point Humidity Wind Precip. Elev Updated Type
                   

Watches & Warnings

Winter Weather Advisory
Issued: 5:02 AM MST Jan. 24, 2017 – National Weather Service

... Winter Weather Advisory remains in effect until 6 PM MST this
evening...

* timing... through this afternoon.

* Total snow accumulations... 2 to 5 inches.

* Winds/visibility... winds becoming northwest 10 to 20 mph with
gusts to 30 mph through the morning. Visibilities may be
reduced to one half mile at times in falling and blowing snow.

* Impacts... hazardous travel is likely through much of today due
to a combination of icy and snow packed roads and poor
visibilities due to falling and blowing snow.

Precautionary/preparedness actions...

A Winter Weather Advisory for snow and blowing snow means that
snow and strong winds will create restricted visibilities and
drifting snow along area roadways. Use caution when traveling...
especially in open areas.